sensor_id;sensor_type;location;lat;lon;timestamp;P1;durP1;ratioP1;P2;durP2;ratioP2
58928;SDS011;44713;53.378;10.022;2022-10-16T00:01:15;9.05;;;6.50;;
58928;SDS011;44713;53.378;10.022;2022-10-16T00:03:42;8.55;;;6.10;;
58928;SDS011;44713;53.378;10.022;2022-10-16T00:06:08;9.18;;;6.25;;
58928;SDS011;44713;53.378;10.022;2022-10-16T00:08:35;12.55;;;6.68;;
58928;SDS011;44713;53.378;10.022;2022-10-16T00:11:02;6.78;;;5.65;;
58928;SDS011;44713;53.378;10.022;2022-10-16T00:13:30;8.52;;;6.75;;
58928;SDS011;44713;53.378;10.022;2022-10-16T00:15:56;9.77;;;6.60;;
58928;SDS011;44713;53.378;10.022;2022-10-16T00:18:23;8.27;;;5.78;;
58928;SDS011;44713;53.378;10.022;2022-10-16T00:20:49;7.47;;;6.28;;
58928;SDS011;44713;53.378;10.022;2022-10-16T00:23:14;9.85;;;6.30;;
58928;SDS011;44713;53.378;10.022;2022-10-16T00:25:40;6.60;;;5.93;;
58928;SDS011;44713;53.378;10.022;2022-10-16T00:28:05;9.20;;;6.25;;
58928;SDS011;44713;53.378;10.022;2022-10-16T00:30:30;6.43;;;5.45;;
58928;SDS011;44713;53.378;10.022;2022-10-16T00:32:55;7.13;;;5.70;;
58928;SDS011;44713;53.378;10.022;2022-10-16T00:35:21;8.93;;;5.50;;
58928;SDS011;44713;53.378;10.022;2022-10-16T00:37:46;9.05;;;6.05;;
58928;SDS011;44713;53.378;10.022;2022-10-16T00:40:12;6.40;;;5.43;;
58928;SDS011;44713;53.378;10.022;2022-10-16T00:42:38;5.22;;;4.72;;
58928;SDS011;44713;53.378;10.022;2022-10-16T00:45:04;8.48;;;5.80;;
58928;SDS011;44713;53.378;10.022;2022-10-16T00:47:31;6.50;;;5.80;;
58928;SDS011;44713;53.378;10.022;2022-10-16T00:50:00;8.40;;;5.78;;
58928;SDS011;44713;53.378;10.022;2022-10-16T00:52:44;8.30;;;6.10;;
58928;SDS011;44713;53.378;10.022;2022-10-16T00:55:12;7.40;;;5.50;;
58928;SDS011;44713;53.378;10.022;2022-10-16T00:57:37;8.13;;;5.18;;
58928;SDS011;44713;53.378;10.022;2022-10-16T01:00:05;7.68;;;5.28;;
58928;SDS011;44713;53.378;10.022;2022-10-16T01:02:32;7.47;;;5.28;;
58928;SDS011;44713;53.378;10.022;2022-10-16T01:04:57;5.32;;;4.35;;
58928;SDS011;44713;53.378;10.022;2022-10-16T01:07:41;8.98;;;4.68;;
58928;SDS011;44713;53.378;10.022;2022-10-16T01:10:23;7.53;;;4.65;;
58928;SDS011;44713;53.378;10.022;2022-10-16T01:13:04;11.38;;;4.65;;
58928;SDS011;44713;53.378;10.022;2022-10-16T01:18:34;5.47;;;4.20;;
58928;SDS011;44713;53.378;10.022;2022-10-16T01:21:05;6.72;;;4.65;;
58928;SDS011;44713;53.378;10.022;2022-10-16T01:23:38;10.77;;;4.03;;
58928;SDS011;44713;53.378;10.022;2022-10-16T01:29:03;5.77;;;4.10;;
58928;SDS011;44713;53.378;10.022;2022-10-16T01:31:34;6.43;;;3.70;;
58928;SDS011;44713;53.378;10.022;2022-10-16T01:34:08;6.05;;;3.65;;
58928;SDS011;44713;53.378;10.022;2022-10-16T01:36:40;6.78;;;3.80;;
58928;SDS011;44713;53.378;10.022;2022-10-16T01:39:19;4.55;;;3.35;;
58928;SDS011;44713;53.378;10.022;2022-10-16T01:41:52;5.60;;;3.00;;
58928;SDS011;44713;53.378;10.022;2022-10-16T01:44:25;6.18;;;3.28;;
58928;SDS011;44713;53.378;10.022;2022-10-16T01:46:54;9.05;;;3.13;;
58928;SDS011;44713;53.378;10.022;2022-10-16T01:49:20;3.70;;;2.85;;
58928;SDS011;44713;53.378;10.022;2022-10-16T01:51:48;8.43;;;3.30;;
58928;SDS011;44713;53.378;10.022;2022-10-16T01:54:17;7.05;;;2.65;;
58928;SDS011;44713;53.378;10.022;2022-10-16T01:56:44;4.57;;;2.40;;
58928;SDS011;44713;53.378;10.022;2022-10-16T01:59:11;7.40;;;2.45;;
58928;SDS011;44713;53.378;10.022;2022-10-16T02:01:40;4.93;;;2.40;;
58928;SDS011;44713;53.378;10.022;2022-10-16T02:04:13;7.05;;;2.63;;
58928;SDS011;44713;53.378;10.022;2022-10-16T02:06:45;4.72;;;2.20;;
58928;SDS011;44713;53.378;10.022;2022-10-16T02:09:10;4.40;;;2.55;;
58928;SDS011;44713;53.378;10.022;2022-10-16T02:11:36;6.25;;;2.08;;
58928;SDS011;44713;53.378;10.022;2022-10-16T02:14:03;6.75;;;2.20;;
58928;SDS011;44713;53.378;10.022;2022-10-16T02:16:34;6.63;;;2.15;;
58928;SDS011;44713;53.378;10.022;2022-10-16T02:18:59;4.75;;;2.20;;
58928;SDS011;44713;53.378;10.022;2022-10-16T02:21:26;7.40;;;2.00;;
58928;SDS011;44713;53.378;10.022;2022-10-16T02:24:16;4.63;;;1.80;;
58928;SDS011;44713;53.378;10.022;2022-10-16T02:27:01;7.38;;;2.58;;
58928;SDS011;44713;53.378;10.022;2022-10-16T02:29:33;6.45;;;2.03;;
58928;SDS011;44713;53.378;10.022;2022-10-16T02:32:05;5.93;;;2.10;;
58928;SDS011;44713;53.378;10.022;2022-10-16T02:34:33;12.57;;;2.30;;
58928;SDS011;44713;53.378;10.022;2022-10-16T02:36:59;4.95;;;2.25;;
58928;SDS011;44713;53.378;10.022;2022-10-16T02:39:27;5.43;;;2.17;;
58928;SDS011;44713;53.378;10.022;2022-10-16T02:41:53;2.88;;;1.90;;
58928;SDS011;44713;53.378;10.022;2022-10-16T02:44:19;2.35;;;1.60;;
58928;SDS011;44713;53.378;10.022;2022-10-16T02:46:44;4.95;;;2.10;;
58928;SDS011;44713;53.378;10.022;2022-10-16T02:49:09;3.03;;;1.48;;
58928;SDS011;44713;53.378;10.022;2022-10-16T02:51:35;3.90;;;1.70;;
58928;SDS011;44713;53.378;10.022;2022-10-16T02:54:01;4.78;;;2.17;;
58928;SDS011;44713;53.378;10.022;2022-10-16T02:56:27;5.07;;;1.73;;
58928;SDS011;44713;53.378;10.022;2022-10-16T02:58:52;7.50;;;2.13;;
58928;SDS011;44713;53.378;10.022;2022-10-16T03:01:17;2.67;;;1.63;;
58928;SDS011;44713;53.378;10.022;2022-10-16T03:03:43;4.75;;;1.70;;
58928;SDS011;44713;53.378;10.022;2022-10-16T03:06:08;2.58;;;1.20;;
58928;SDS011;44713;53.378;10.022;2022-10-16T03:08:33;1.77;;;1.38;;
58928;SDS011;44713;53.378;10.022;2022-10-16T03:10:59;4.70;;;2.03;;
58928;SDS011;44713;53.378;10.022;2022-10-16T03:13:27;5.80;;;1.80;;
58928;SDS011;44713;53.378;10.022;2022-10-16T03:15:52;6.20;;;1.83;;
58928;SDS011;44713;53.378;10.022;2022-10-16T03:18:17;6.32;;;1.77;;
58928;SDS011;44713;53.378;10.022;2022-10-16T03:20:43;4.10;;;2.03;;
58928;SDS011;44713;53.378;10.022;2022-10-16T03:23:08;2.88;;;1.80;;
58928;SDS011;44713;53.378;10.022;2022-10-16T03:25:34;4.88;;;1.70;;
58928;SDS011;44713;53.378;10.022;2022-10-16T03:27:59;9.07;;;1.63;;
58928;SDS011;44713;53.378;10.022;2022-10-16T03:30:24;5.47;;;1.95;;
58928;SDS011;44713;53.378;10.022;2022-10-16T03:32:50;5.35;;;1.45;;
58928;SDS011;44713;53.378;10.022;2022-10-16T03:35:19;3.88;;;1.80;;
58928;SDS011;44713;53.378;10.022;2022-10-16T03:37:45;2.92;;;1.50;;
58928;SDS011;44713;53.378;10.022;2022-10-16T03:40:10;6.10;;;1.95;;
58928;SDS011;44713;53.378;10.022;2022-10-16T03:42:36;4.88;;;1.80;;
58928;SDS011;44713;53.378;10.022;2022-10-16T03:45:01;4.25;;;1.50;;
58928;SDS011;44713;53.378;10.022;2022-10-16T03:47:27;5.68;;;1.45;;
58928;SDS011;44713;53.378;10.022;2022-10-16T03:49:52;4.05;;;1.33;;
58928;SDS011;44713;53.378;10.022;2022-10-16T03:52:17;4.60;;;1.25;;
58928;SDS011;44713;53.378;10.022;2022-10-16T03:54:43;4.22;;;1.48;;
58928;SDS011;44713;53.378;10.022;2022-10-16T03:57:08;7.30;;;1.42;;
58928;SDS011;44713;53.378;10.022;2022-10-16T03:59:33;4.00;;;1.50;;
58928;SDS011;44713;53.378;10.022;2022-10-16T04:01:59;2.28;;;1.23;;
58928;SDS011;44713;53.378;10.022;2022-10-16T04:04:24;4.70;;;1.50;;
58928;SDS011;44713;53.378;10.022;2022-10-16T04:06:50;4.57;;;1.40;;
58928;SDS011;44713;53.378;10.022;2022-10-16T04:09:16;6.63;;;1.63;;
58928;SDS011;44713;53.378;10.022;2022-10-16T04:11:41;4.32;;;1.40;;
58928;SDS011;44713;53.378;10.022;2022-10-16T04:14:06;4.07;;;1.50;;
58928;SDS011;44713;53.378;10.022;2022-10-16T04:16:32;5.22;;;1.70;;
58928;SDS011;44713;53.378;10.022;2022-10-16T04:18:57;5.95;;;1.20;;
58928;SDS011;44713;53.378;10.022;2022-10-16T04:21:22;2.17;;;1.23;;
58928;SDS011;44713;53.378;10.022;2022-10-16T04:23:48;7.95;;;1.65;;
58928;SDS011;44713;53.378;10.022;2022-10-16T04:26:14;5.38;;;1.70;;
58928;SDS011;44713;53.378;10.022;2022-10-16T04:28:39;5.55;;;2.45;;
58928;SDS011;44713;53.378;10.022;2022-10-16T04:31:05;4.97;;;1.40;;
58928;SDS011;44713;53.378;10.022;2022-10-16T04:33:31;3.08;;;1.58;;
58928;SDS011;44713;53.378;10.022;2022-10-16T04:35:57;4.57;;;2.00;;
58928;SDS011;44713;53.378;10.022;2022-10-16T04:38:23;3.13;;;2.20;;
58928;SDS011;44713;53.378;10.022;2022-10-16T04:40:49;5.93;;;1.92;;
58928;SDS011;44713;53.378;10.022;2022-10-16T04:43:14;4.40;;;2.15;;
58928;SDS011;44713;53.378;10.022;2022-10-16T04:45:39;6.00;;;2.00;;
58928;SDS011;44713;53.378;10.022;2022-10-16T04:48:04;6.70;;;2.00;;
58928;SDS011;44713;53.378;10.022;2022-10-16T04:50:30;4.05;;;1.73;;
58928;SDS011;44713;53.378;10.022;2022-10-16T04:53:05;4.53;;;1.70;;
58928;SDS011;44713;53.378;10.022;2022-10-16T04:55:31;7.90;;;2.05;;
58928;SDS011;44713;53.378;10.022;2022-10-16T04:57:56;4.93;;;1.83;;
58928;SDS011;44713;53.378;10.022;2022-10-16T05:00:22;4.70;;;2.20;;
58928;SDS011;44713;53.378;10.022;2022-10-16T05:02:49;11.88;;;2.15;;
58928;SDS011;44713;53.378;10.022;2022-10-16T05:05:15;6.68;;;1.98;;
58928;SDS011;44713;53.378;10.022;2022-10-16T05:07:40;6.03;;;1.80;;
58928;SDS011;44713;53.378;10.022;2022-10-16T05:10:06;4.40;;;1.80;;
58928;SDS011;44713;53.378;10.022;2022-10-16T05:12:32;5.13;;;1.90;;
58928;SDS011;44713;53.378;10.022;2022-10-16T05:14:57;4.18;;;1.50;;
58928;SDS011;44713;53.378;10.022;2022-10-16T05:17:24;4.32;;;1.95;;
58928;SDS011;44713;53.378;10.022;2022-10-16T05:19:50;2.97;;;1.58;;
58928;SDS011;44713;53.378;10.022;2022-10-16T05:22:15;5.95;;;1.95;;
58928;SDS011;44713;53.378;10.022;2022-10-16T05:24:41;4.15;;;1.60;;
58928;SDS011;44713;53.378;10.022;2022-10-16T05:27:06;7.20;;;1.70;;
58928;SDS011;44713;53.378;10.022;2022-10-16T05:29:32;7.60;;;1.75;;
58928;SDS011;44713;53.378;10.022;2022-10-16T05:31:57;8.30;;;1.70;;
58928;SDS011;44713;53.378;10.022;2022-10-16T05:34:22;4.18;;;2.40;;
58928;SDS011;44713;53.378;10.022;2022-10-16T05:36:48;4.82;;;1.90;;
58928;SDS011;44713;53.378;10.022;2022-10-16T05:39:14;4.43;;;1.70;;
58928;SDS011;44713;53.378;10.022;2022-10-16T05:41:40;4.07;;;1.67;;
58928;SDS011;44713;53.378;10.022;2022-10-16T05:44:05;4.85;;;2.03;;
58928;SDS011;44713;53.378;10.022;2022-10-16T05:46:32;5.63;;;1.40;;
58928;SDS011;44713;53.378;10.022;2022-10-16T05:48:58;6.70;;;1.83;;
58928;SDS011;44713;53.378;10.022;2022-10-16T05:51:23;6.25;;;1.70;;
58928;SDS011;44713;53.378;10.022;2022-10-16T05:53:48;5.65;;;1.60;;
58928;SDS011;44713;53.378;10.022;2022-10-16T05:56:14;5.68;;;1.70;;
58928;SDS011;44713;53.378;10.022;2022-10-16T05:58:40;5.38;;;1.60;;
58928;SDS011;44713;53.378;10.022;2022-10-16T06:01:07;4.32;;;1.75;;
58928;SDS011;44713;53.378;10.022;2022-10-16T06:03:35;3.10;;;1.50;;
58928;SDS011;44713;53.378;10.022;2022-10-16T06:06:07;4.15;;;1.77;;
58928;SDS011;44713;53.378;10.022;2022-10-16T06:08:40;6.18;;;1.67;;
58928;SDS011;44713;53.378;10.022;2022-10-16T06:11:08;3.42;;;1.83;;
58928;SDS011;44713;53.378;10.022;2022-10-16T06:13:35;3.55;;;1.83;;
58928;SDS011;44713;53.378;10.022;2022-10-16T06:16:00;6.80;;;1.35;;
58928;SDS011;44713;53.378;10.022;2022-10-16T06:18:27;7.88;;;1.77;;
58928;SDS011;44713;53.378;10.022;2022-10-16T06:20:53;3.20;;;1.40;;
58928;SDS011;44713;53.378;10.022;2022-10-16T06:23:19;7.35;;;2.10;;
58928;SDS011;44713;53.378;10.022;2022-10-16T06:25:44;8.82;;;1.75;;
58928;SDS011;44713;53.378;10.022;2022-10-16T06:28:10;6.47;;;1.83;;
58928;SDS011;44713;53.378;10.022;2022-10-16T06:30:35;8.68;;;1.98;;
58928;SDS011;44713;53.378;10.022;2022-10-16T06:33:00;6.20;;;2.10;;
58928;SDS011;44713;53.378;10.022;2022-10-16T06:35:26;4.18;;;2.00;;
58928;SDS011;44713;53.378;10.022;2022-10-16T06:37:52;7.25;;;2.35;;
58928;SDS011;44713;53.378;10.022;2022-10-16T06:40:18;7.88;;;2.58;;
58928;SDS011;44713;53.378;10.022;2022-10-16T06:42:43;8.75;;;2.40;;
58928;SDS011;44713;53.378;10.022;2022-10-16T06:45:09;8.57;;;2.28;;
58928;SDS011;44713;53.378;10.022;2022-10-16T06:47:35;9.48;;;2.72;;
58928;SDS011;44713;53.378;10.022;2022-10-16T06:50:00;8.55;;;3.03;;
58928;SDS011;44713;53.378;10.022;2022-10-16T06:52:27;4.30;;;2.50;;
58928;SDS011;44713;53.378;10.022;2022-10-16T06:54:53;7.28;;;3.13;;
58928;SDS011;44713;53.378;10.022;2022-10-16T06:57:18;5.25;;;2.83;;
58928;SDS011;44713;53.378;10.022;2022-10-16T06:59:43;5.18;;;2.80;;
58928;SDS011;44713;53.378;10.022;2022-10-16T07:02:09;7.50;;;2.90;;
58928;SDS011;44713;53.378;10.022;2022-10-16T07:04:35;4.03;;;3.08;;
58928;SDS011;44713;53.378;10.022;2022-10-16T07:07:00;6.82;;;3.20;;
58928;SDS011;44713;53.378;10.022;2022-10-16T07:09:26;7.00;;;3.17;;
58928;SDS011;44713;53.378;10.022;2022-10-16T07:11:51;4.68;;;2.58;;
58928;SDS011;44713;53.378;10.022;2022-10-16T07:14:17;4.57;;;3.03;;
58928;SDS011;44713;53.378;10.022;2022-10-16T07:16:43;7.82;;;3.22;;
58928;SDS011;44713;53.378;10.022;2022-10-16T07:19:09;6.25;;;2.88;;
58928;SDS011;44713;53.378;10.022;2022-10-16T07:21:37;7.18;;;3.00;;
58928;SDS011;44713;53.378;10.022;2022-10-16T07:24:04;6.85;;;3.08;;
58928;SDS011;44713;53.378;10.022;2022-10-16T07:26:32;7.63;;;3.55;;
58928;SDS011;44713;53.378;10.022;2022-10-16T07:28:58;6.03;;;2.88;;
58928;SDS011;44713;53.378;10.022;2022-10-16T07:31:24;8.02;;;3.22;;
58928;SDS011;44713;53.378;10.022;2022-10-16T07:33:50;8.18;;;2.65;;
58928;SDS011;44713;53.378;10.022;2022-10-16T07:36:17;6.35;;;2.88;;
58928;SDS011;44713;53.378;10.022;2022-10-16T07:38:44;8.23;;;2.50;;
58928;SDS011;44713;53.378;10.022;2022-10-16T07:41:11;9.40;;;2.97;;
58928;SDS011;44713;53.378;10.022;2022-10-16T07:43:38;5.50;;;2.65;;
58928;SDS011;44713;53.378;10.022;2022-10-16T07:46:04;6.60;;;2.65;;
58928;SDS011;44713;53.378;10.022;2022-10-16T07:48:31;5.03;;;2.53;;
58928;SDS011;44713;53.378;10.022;2022-10-16T07:51:01;6.32;;;2.60;;
58928;SDS011;44713;53.378;10.022;2022-10-16T07:53:28;4.65;;;2.63;;
58928;SDS011;44713;53.378;10.022;2022-10-16T07:56:06;5.50;;;2.20;;
58928;SDS011;44713;53.378;10.022;2022-10-16T07:58:32;4.28;;;2.20;;
58928;SDS011;44713;53.378;10.022;2022-10-16T08:00:59;4.32;;;2.17;;
58928;SDS011;44713;53.378;10.022;2022-10-16T08:03:29;4.38;;;2.08;;
58928;SDS011;44713;53.378;10.022;2022-10-16T08:05:54;6.30;;;2.10;;
58928;SDS011;44713;53.378;10.022;2022-10-16T08:08:22;9.50;;;3.13;;
58928;SDS011;44713;53.378;10.022;2022-10-16T08:10:47;5.05;;;2.72;;
58928;SDS011;44713;53.378;10.022;2022-10-16T08:13:12;5.07;;;2.40;;
58928;SDS011;44713;53.378;10.022;2022-10-16T08:15:40;4.78;;;2.10;;
58928;SDS011;44713;53.378;10.022;2022-10-16T08:18:06;2.72;;;2.25;;
58928;SDS011;44713;53.378;10.022;2022-10-16T08:20:32;3.35;;;2.08;;
58928;SDS011;44713;53.378;10.022;2022-10-16T08:22:58;3.88;;;1.80;;
58928;SDS011;44713;53.378;10.022;2022-10-16T08:25:24;3.53;;;1.80;;
58928;SDS011;44713;53.378;10.022;2022-10-16T08:27:50;7.60;;;1.85;;
58928;SDS011;44713;53.378;10.022;2022-10-16T08:30:16;4.15;;;1.60;;
58928;SDS011;44713;53.378;10.022;2022-10-16T08:32:43;4.25;;;1.65;;
58928;SDS011;44713;53.378;10.022;2022-10-16T08:35:09;3.60;;;1.63;;
58928;SDS011;44713;53.378;10.022;2022-10-16T08:37:35;5.55;;;1.63;;
58928;SDS011;44713;53.378;10.022;2022-10-16T08:40:01;2.50;;;1.88;;
58928;SDS011;44713;53.378;10.022;2022-10-16T08:42:30;4.28;;;1.42;;
58928;SDS011;44713;53.378;10.022;2022-10-16T08:45:19;3.67;;;1.67;;
58928;SDS011;44713;53.378;10.022;2022-10-16T08:48:08;5.22;;;1.63;;
58928;SDS011;44713;53.378;10.022;2022-10-16T08:50:43;4.82;;;1.73;;
58928;SDS011;44713;53.378;10.022;2022-10-16T08:53:18;3.90;;;1.75;;
58928;SDS011;44713;53.378;10.022;2022-10-16T08:55:50;3.63;;;1.83;;
58928;SDS011;44713;53.378;10.022;2022-10-16T08:58:26;5.50;;;3.47;;
58928;SDS011;44713;53.378;10.022;2022-10-16T09:00:56;6.93;;;3.35;;
58928;SDS011;44713;53.378;10.022;2022-10-16T09:03:33;3.10;;;1.48;;
58928;SDS011;44713;53.378;10.022;2022-10-16T09:11:53;3.25;;;1.52;;
58928;SDS011;44713;53.378;10.022;2022-10-16T09:20:18;2.33;;;1.40;;
58928;SDS011;44713;53.378;10.022;2022-10-16T09:23:00;3.08;;;1.40;;
58928;SDS011;44713;53.378;10.022;2022-10-16T09:25:37;1.85;;;1.20;;
58928;SDS011;44713;53.378;10.022;2022-10-16T09:28:04;4.35;;;1.17;;
58928;SDS011;44713;53.378;10.022;2022-10-16T09:30:30;1.90;;;1.10;;
58928;SDS011;44713;53.378;10.022;2022-10-16T09:32:55;2.78;;;1.00;;
58928;SDS011;44713;53.378;10.022;2022-10-16T09:35:27;2.95;;;1.38;;
58928;SDS011;44713;53.378;10.022;2022-10-16T09:37:58;6.30;;;1.10;;
58928;SDS011;44713;53.378;10.022;2022-10-16T09:40:30;4.93;;;0.85;;
58928;SDS011;44713;53.378;10.022;2022-10-16T09:45:27;4.28;;;1.25;;
58928;SDS011;44713;53.378;10.022;2022-10-16T09:47:53;2.13;;;0.80;;
58928;SDS011;44713;53.378;10.022;2022-10-16T09:50:22;6.93;;;1.10;;
58928;SDS011;44713;53.378;10.022;2022-10-16T09:55:52;2.38;;;1.10;;
58928;SDS011;44713;53.378;10.022;2022-10-16T09:58:20;4.07;;;0.77;;
58928;SDS011;44713;53.378;10.022;2022-10-16T10:00:53;5.82;;;0.95;;
58928;SDS011;44713;53.378;10.022;2022-10-16T10:03:26;3.65;;;0.80;;
58928;SDS011;44713;53.378;10.022;2022-10-16T10:05:58;4.53;;;0.80;;
58928;SDS011;44713;53.378;10.022;2022-10-16T10:08:26;4.20;;;0.90;;
58928;SDS011;44713;53.378;10.022;2022-10-16T10:10:51;5.07;;;0.90;;
58928;SDS011;44713;53.378;10.022;2022-10-16T10:13:21;3.15;;;0.80;;
58928;SDS011;44713;53.378;10.022;2022-10-16T10:15:50;3.08;;;0.75;;
58928;SDS011;44713;53.378;10.022;2022-10-16T10:18:16;3.45;;;0.90;;
58928;SDS011;44713;53.378;10.022;2022-10-16T10:20:45;3.38;;;0.80;;
58928;SDS011;44713;53.378;10.022;2022-10-16T10:23:21;4.10;;;0.77;;
58928;SDS011;44713;53.378;10.022;2022-10-16T10:31:41;3.78;;;0.70;;
58928;SDS011;44713;53.378;10.022;2022-10-16T10:36:43;4.70;;;0.82;;
58928;SDS011;44713;53.378;10.022;2022-10-16T10:39:18;3.60;;;0.80;;
58928;SDS011;44713;53.378;10.022;2022-10-16T10:42:05;3.55;;;0.73;;
58928;SDS011;44713;53.378;10.022;2022-10-16T10:52:34;2.90;;;0.70;;
58928;SDS011;44713;53.378;10.022;2022-10-16T11:00:57;2.33;;;0.70;;
58928;SDS011;44713;53.378;10.022;2022-10-16T11:06:54;2.42;;;0.60;;
58928;SDS011;44713;53.378;10.022;2022-10-16T11:09:22;2.40;;;0.60;;
58928;SDS011;44713;53.378;10.022;2022-10-16T11:14:40;5.80;;;1.30;;
58928;SDS011;44713;53.378;10.022;2022-10-16T11:17:16;2.22;;;0.70;;
58928;SDS011;44713;53.378;10.022;2022-10-16T11:19:46;2.03;;;0.60;;
58928;SDS011;44713;53.378;10.022;2022-10-16T11:22:20;3.58;;;0.70;;
58928;SDS011;44713;53.378;10.022;2022-10-16T11:25:00;5.03;;;0.82;;
58928;SDS011;44713;53.378;10.022;2022-10-16T11:27:39;3.15;;;0.60;;
58928;SDS011;44713;53.378;10.022;2022-10-16T11:30:16;2.85;;;0.60;;
58928;SDS011;44713;53.378;10.022;2022-10-16T11:35:57;4.22;;;0.80;;
58928;SDS011;44713;53.378;10.022;2022-10-16T11:38:33;4.90;;;0.60;;
58928;SDS011;44713;53.378;10.022;2022-10-16T11:41:10;1.83;;;0.93;;
58928;SDS011;44713;53.378;10.022;2022-10-16T11:43:52;3.70;;;0.60;;
58928;SDS011;44713;53.378;10.022;2022-10-16T11:46:27;3.83;;;0.82;;
58928;SDS011;44713;53.378;10.022;2022-10-16T11:54:51;4.78;;;0.60;;
58928;SDS011;44713;53.378;10.022;2022-10-16T11:57:29;6.78;;;0.80;;
58928;SDS011;44713;53.378;10.022;2022-10-16T12:00:14;3.58;;;0.77;;
58928;SDS011;44713;53.378;10.022;2022-10-16T12:02:53;3.85;;;0.88;;
58928;SDS011;44713;53.378;10.022;2022-10-16T12:05:47;4.25;;;0.63;;
58928;SDS011;44713;53.378;10.022;2022-10-16T12:08:25;3.33;;;0.93;;
58928;SDS011;44713;53.378;10.022;2022-10-16T12:10:51;2.25;;;0.77;;
58928;SDS011;44713;53.378;10.022;2022-10-16T12:13:30;3.10;;;0.60;;
58928;SDS011;44713;53.378;10.022;2022-10-16T12:16:20;5.07;;;0.75;;
58928;SDS011;44713;53.378;10.022;2022-10-16T12:18:47;3.95;;;0.80;;
58928;SDS011;44713;53.378;10.022;2022-10-16T12:21:14;6.15;;;0.75;;
58928;SDS011;44713;53.378;10.022;2022-10-16T12:23:51;4.50;;;0.43;;
58928;SDS011;44713;53.378;10.022;2022-10-16T12:28:50;3.53;;;0.75;;
58928;SDS011;44713;53.378;10.022;2022-10-16T12:31:16;7.22;;;0.65;;
58928;SDS011;44713;53.378;10.022;2022-10-16T12:33:58;4.07;;;0.77;;
58928;SDS011;44713;53.378;10.022;2022-10-16T12:36:27;4.68;;;0.55;;
58928;SDS011;44713;53.378;10.022;2022-10-16T12:38:57;5.00;;;0.70;;
58928;SDS011;44713;53.378;10.022;2022-10-16T12:41:28;2.88;;;0.70;;
58928;SDS011;44713;53.378;10.022;2022-10-16T12:43:58;5.10;;;0.73;;
58928;SDS011;44713;53.378;10.022;2022-10-16T12:49:05;2.30;;;0.55;;
58928;SDS011;44713;53.378;10.022;2022-10-16T12:51:41;1.90;;;0.45;;
58928;SDS011;44713;53.378;10.022;2022-10-16T12:57:01;2.35;;;0.70;;
58928;SDS011;44713;53.378;10.022;2022-10-16T12:59:46;4.43;;;0.70;;
58928;SDS011;44713;53.378;10.022;2022-10-16T13:07:43;3.17;;;0.57;;
58928;SDS011;44713;53.378;10.022;2022-10-16T13:27:45;1.38;;;0.30;;
58928;SDS011;44713;53.378;10.022;2022-10-16T13:30:21;5.78;;;0.60;;
58928;SDS011;44713;53.378;10.022;2022-10-16T13:32:49;5.45;;;0.70;;
58928;SDS011;44713;53.378;10.022;2022-10-16T13:35:25;4.28;;;0.80;;
58928;SDS011;44713;53.378;10.022;2022-10-16T13:40:36;6.78;;;0.93;;
58928;SDS011;44713;53.378;10.022;2022-10-16T13:43:01;3.65;;;0.68;;
58928;SDS011;44713;53.378;10.022;2022-10-16T13:45:27;5.05;;;0.80;;
58928;SDS011;44713;53.378;10.022;2022-10-16T13:48:02;6.30;;;0.80;;
58928;SDS011;44713;53.378;10.022;2022-10-16T13:50:31;6.55;;;0.93;;
58928;SDS011;44713;53.378;10.022;2022-10-16T13:53:03;5.25;;;1.05;;
58928;SDS011;44713;53.378;10.022;2022-10-16T13:55:29;5.63;;;0.80;;
58928;SDS011;44713;53.378;10.022;2022-10-16T13:58:04;2.85;;;0.82;;
58928;SDS011;44713;53.378;10.022;2022-10-16T14:00:33;2.97;;;0.70;;
58928;SDS011;44713;53.378;10.022;2022-10-16T14:03:04;3.42;;;0.77;;
58928;SDS011;44713;53.378;10.022;2022-10-16T14:05:31;6.93;;;0.82;;
58928;SDS011;44713;53.378;10.022;2022-10-16T14:07:57;3.53;;;0.60;;
58928;SDS011;44713;53.378;10.022;2022-10-16T14:10:30;6.65;;;1.55;;
58928;SDS011;44713;53.378;10.022;2022-10-16T14:13:00;4.35;;;1.10;;
58928;SDS011;44713;53.378;10.022;2022-10-16T14:15:29;4.82;;;0.90;;
58928;SDS011;44713;53.378;10.022;2022-10-16T14:17:56;5.32;;;0.73;;
58928;SDS011;44713;53.378;10.022;2022-10-16T14:20:24;4.53;;;0.63;;
58928;SDS011;44713;53.378;10.022;2022-10-16T14:28:31;5.10;;;0.90;;
58928;SDS011;44713;53.378;10.022;2022-10-16T14:30:58;5.05;;;0.80;;
58928;SDS011;44713;53.378;10.022;2022-10-16T14:36:13;3.63;;;0.88;;
58928;SDS011;44713;53.378;10.022;2022-10-16T14:38:43;5.18;;;0.70;;
58928;SDS011;44713;53.378;10.022;2022-10-16T14:41:22;7.15;;;0.80;;
58928;SDS011;44713;53.378;10.022;2022-10-16T14:43:50;4.28;;;0.70;;
58928;SDS011;44713;53.378;10.022;2022-10-16T14:46:18;6.28;;;1.13;;
58928;SDS011;44713;53.378;10.022;2022-10-16T14:48:47;3.55;;;0.65;;
58928;SDS011;44713;53.378;10.022;2022-10-16T14:51:19;3.13;;;0.70;;
58928;SDS011;44713;53.378;10.022;2022-10-16T14:53:45;3.25;;;0.80;;
58928;SDS011;44713;53.378;10.022;2022-10-16T14:58:44;3.17;;;0.70;;
58928;SDS011;44713;53.378;10.022;2022-10-16T15:01:10;3.85;;;0.75;;
58928;SDS011;44713;53.378;10.022;2022-10-16T15:03:36;6.35;;;0.95;;
58928;SDS011;44713;53.378;10.022;2022-10-16T15:06:02;4.82;;;0.93;;
58928;SDS011;44713;53.378;10.022;2022-10-16T15:08:28;3.95;;;0.70;;
58928;SDS011;44713;53.378;10.022;2022-10-16T15:10:53;9.57;;;1.15;;
58928;SDS011;44713;53.378;10.022;2022-10-16T15:13:19;3.90;;;0.73;;
58928;SDS011;44713;53.378;10.022;2022-10-16T15:15:45;2.75;;;0.80;;
58928;SDS011;44713;53.378;10.022;2022-10-16T15:18:11;4.25;;;0.90;;
58928;SDS011;44713;53.378;10.022;2022-10-16T15:20:39;2.80;;;0.80;;
58928;SDS011;44713;53.378;10.022;2022-10-16T15:23:15;4.85;;;1.20;;
58928;SDS011;44713;53.378;10.022;2022-10-16T15:25:46;3.63;;;0.80;;
58928;SDS011;44713;53.378;10.022;2022-10-16T15:28:17;3.53;;;0.70;;
58928;SDS011;44713;53.378;10.022;2022-10-16T15:30:44;6.47;;;1.02;;
58928;SDS011;44713;53.378;10.022;2022-10-16T15:33:14;9.02;;;0.95;;
58928;SDS011;44713;53.378;10.022;2022-10-16T15:35:41;4.05;;;0.80;;
58928;SDS011;44713;53.378;10.022;2022-10-16T15:38:11;5.72;;;0.80;;
58928;SDS011;44713;53.378;10.022;2022-10-16T15:40:37;4.38;;;1.00;;
58928;SDS011;44713;53.378;10.022;2022-10-16T15:43:03;6.93;;;0.90;;
58928;SDS011;44713;53.378;10.022;2022-10-16T15:45:29;5.93;;;1.63;;
58928;SDS011;44713;53.378;10.022;2022-10-16T15:47:54;4.45;;;0.80;;
58928;SDS011;44713;53.378;10.022;2022-10-16T15:50:19;2.95;;;0.75;;
58928;SDS011;44713;53.378;10.022;2022-10-16T15:52:45;3.80;;;0.80;;
58928;SDS011;44713;53.378;10.022;2022-10-16T15:55:11;4.07;;;0.73;;
58928;SDS011;44713;53.378;10.022;2022-10-16T15:57:38;6.95;;;1.40;;
58928;SDS011;44713;53.378;10.022;2022-10-16T16:00:09;8.10;;;0.90;;
58928;SDS011;44713;53.378;10.022;2022-10-16T16:02:38;4.72;;;1.00;;
58928;SDS011;44713;53.378;10.022;2022-10-16T16:05:04;6.43;;;1.17;;
58928;SDS011;44713;53.378;10.022;2022-10-16T16:07:38;3.80;;;0.90;;
58928;SDS011;44713;53.378;10.022;2022-10-16T16:10:05;3.63;;;1.00;;
58928;SDS011;44713;53.378;10.022;2022-10-16T16:12:32;5.95;;;0.77;;
58928;SDS011;44713;53.378;10.022;2022-10-16T16:14:58;3.92;;;0.82;;
58928;SDS011;44713;53.378;10.022;2022-10-16T16:17:23;6.43;;;0.88;;
58928;SDS011;44713;53.378;10.022;2022-10-16T16:19:49;2.95;;;0.77;;
58928;SDS011;44713;53.378;10.022;2022-10-16T16:22:15;3.53;;;0.90;;
58928;SDS011;44713;53.378;10.022;2022-10-16T16:24:40;7.38;;;0.95;;
58928;SDS011;44713;53.378;10.022;2022-10-16T16:27:05;4.72;;;0.82;;